Herkenbosch, Netherlands
Current Conditions -  °F | °C
As of 7:50 PM on Friday 28 Nov 2014 (Local Time) from ETNG Reporting Station
Clear Clear  
Wind Chill: 32°   Ceiling: Unl
Heat Index: 41°   Visibility: 6mi
Dew Point: 37°   Wind: 17mph
Humidity: 87%   Direction: 100°E
Pressure: 29.83"   Gusts: NA
Location:  51.15°N, 6.06°E
Report Text: ETNG 281850Z 10015KT CAVOK 05/03 Q1010 NOSIG
Loading
Personal Weather Stations






























Interactive Weather Map New forecast layout! Learn more

10-Day Weather Forecast

Advertisements
Track Severe Weather on mobile